weather.gov     
National Weather Service

Terminal Aerodrome Forecast
NWS Homepage
This page is being discontinued on March 12, 2014.
The same data is available at this site. Please update your bookmarks.
Thank you, and we apologize for the inconvenience.
Please send an email to SR-SRH.Webmaster@noaa.gov with any concerns.


Current Version
Previous Version:    01  02  03  04  05  06  07  08  09  10  11  12  13  14  15  16  17  18  19  20  21  22  23  24  25  26  27  28  29  30  
   31  
[Printable]
984
FTUS45 KGID 221910 AAA
TAFEAR
TAF AMD
KEAR 221910Z 2219/2318 VRB06KT P6SM SCT040
     FM222000 08010KT P6SM SCT050
     FM230000 09010KT P6SM VCTS SCT050CB BKN100
     FM230700 12010KT P6SM BKN080 WS015/21035KT
     FM231200 VRB06KT P6SM SCT100
      AMD LTD TO CLD VIS AND WIND=




984
FTUS45 KGID 221910 AAA
TAFEAR
TAF AMD
KEAR 221910Z 2219/2318 VRB06KT P6SM SCT040
     FM222000 08010KT P6SM SCT050
     FM230000 09010KT P6SM VCTS SCT050CB BKN100
     FM230700 12010KT P6SM BKN080 WS015/21035KT
     FM231200 VRB06KT P6SM SCT100
      AMD LTD TO CLD VIS AND WIND=


U.S. Dept. of Commerce
NOAA National Weather Service
1325 East West Highway
Silver Spring, MD 20910
E-mail: w-nws.webmaster@noaa.gov
Page last modified: May 16, 2007
NATIONAL WEATHER SERVICE: for Safety, for Work, for Fun - FOR LIFE